Time;durP1;ratioP1;P1;durP2;ratioP2;P2;SDS_P1;SDS_P2;PMS_P1;PMS_P2;Temp;Humidity;BMP_temperature;BMP_pressure;BME280_temperature;BME280_humidity;BME280_pressure;Samples;Min_cycle;Max_cycle;Signal;HPM_P1;HPM_P2
2021/07/16 00:00:07;;;;;;;19.23;6.05;;;;;;;;;;5040657;28;20038;-69
2021/07/16 00:02:33;;;;;;;16.42;5.35;;;;;;;;;;5032027;28;20511;-69
2021/07/16 00:05:02;;;;;;;17.17;5.80;;;;;;;;;;5035529;28;20421;-69
2021/07/16 00:07:28;;;;;;;16.77;5.50;;;;;;;;;;5012562;28;20689;-70
2021/07/16 00:09:54;;;;;;;18.10;5.57;;;;;;;;;;5037241;28;20049;-70
2021/07/16 00:12:21;;;;;;;24.33;6.20;;;;;;;;;;5027500;28;20392;-70
2021/07/16 00:14:47;;;;;;;19.08;5.05;;;;;;;;;;5039722;28;20195;-69
2021/07/16 00:17:13;;;;;;;23.55;5.75;;;;;;;;;;5038734;28;20040;-69
2021/07/16 00:19:39;;;;;;;15.75;5.20;;;;;;;;;;5029873;28;20034;-69
2021/07/16 00:22:06;;;;;;;20.13;6.28;;;;;;;;;;5031588;28;20042;-71
2021/07/16 00:24:32;;;;;;;20.35;6.15;;;;;;;;;;5028453;28;20045;-71
2021/07/16 00:26:58;;;;;;;20.65;6.40;;;;;;;;;;5036396;28;20045;-70
2021/07/16 00:29:28;;;;;;;24.38;6.80;;;;;;;;;;5031590;28;20056;-70
2021/07/16 00:31:54;;;;;;;18.98;6.10;;;;;;;;;;5039546;28;20041;-70
2021/07/16 00:34:21;;;;;;;20.90;6.20;;;;;;;;;;5030570;28;20120;-70
2021/07/16 00:36:48;;;;;;;18.52;5.78;;;;;;;;;;5032076;28;20033;-71
2021/07/16 00:39:14;;;;;;;19.48;5.97;;;;;;;;;;5031871;28;20080;-71
2021/07/16 00:41:40;;;;;;;19.60;5.93;;;;;;;;;;5037230;28;20082;-70
2021/07/16 00:44:06;;;;;;;18.98;5.93;;;;;;;;;;5031264;28;21104;-70
2021/07/16 00:46:33;;;;;;;18.98;5.78;;;;;;;;;;5038121;28;20046;-70
2021/07/16 00:48:59;;;;;;;15.50;5.65;;;;;;;;;;5031398;28;20083;-71
2021/07/16 00:51:25;;;;;;;28.45;6.20;;;;;;;;;;5032045;28;20071;-71
2021/07/16 00:53:52;;;;;;;18.50;5.65;;;;;;;;;;5029732;28;20030;-71
2021/07/16 00:56:18;;;;;;;19.17;6.45;;;;;;;;;;5034556;28;20041;-71
2021/07/16 00:58:44;;;;;;;20.02;5.85;;;;;;;;;;5036568;28;20482;-71
2021/07/16 01:01:11;;;;;;;19.50;5.78;;;;;;;;;;5032307;28;20072;-71
2021/07/16 01:03:37;;;;;;;17.73;5.93;;;;;;;;;;5018839;28;20581;-71
2021/07/16 01:06:03;;;;;;;21.33;6.05;;;;;;;;;;5028156;28;20033;-71
2021/07/16 01:08:31;;;;;;;21.55;6.28;;;;;;;;;;5037099;28;20068;-71
2021/07/16 01:10:57;;;;;;;22.80;5.82;;;;;;;;;;5032562;28;20513;-71
2021/07/16 01:13:24;;;;;;;21.95;5.28;;;;;;;;;;5042248;28;20426;-71
2021/07/16 01:15:51;;;;;;;20.27;5.03;;;;;;;;;;5026470;28;20496;-70
2021/07/16 01:18:18;;;;;;;22.92;5.25;;;;;;;;;;5020801;28;20428;-70
2021/07/16 01:20:44;;;;;;;20.52;5.90;;;;;;;;;;5030625;28;20033;-71
2021/07/16 01:23:17;;;;;;;16.63;5.25;;;;;;;;;;5015299;28;20410;-71
2021/07/16 01:25:44;;;;;;;23.00;6.28;;;;;;;;;;5029319;28;20478;-71
2021/07/16 01:28:10;;;;;;;21.17;5.88;;;;;;;;;;5035682;28;20032;-71
2021/07/16 01:30:36;;;;;;;18.90;5.93;;;;;;;;;;5027458;28;20175;-71
2021/07/16 01:33:04;;;;;;;19.88;6.00;;;;;;;;;;5031111;28;20069;-71
2021/07/16 01:35:31;;;;;;;20.17;6.68;;;;;;;;;;5029345;28;20147;-71
2021/07/16 01:37:57;;;;;;;17.55;5.68;;;;;;;;;;5033399;28;20029;-71
2021/07/16 01:40:26;;;;;;;22.42;5.88;;;;;;;;;;5043402;28;20477;-71
2021/07/16 01:42:56;;;;;;;18.42;5.32;;;;;;;;;;5027763;28;20046;-71
2021/07/16 01:45:30;;;;;;;15.77;5.05;;;;;;;;;;5038488;28;20509;-71
2021/07/16 01:48:07;;;;;;;22.38;5.53;;;;;;;;;;5028988;28;20082;-71
2021/07/16 01:50:35;;;;;;;19.63;5.30;;;;;;;;;;5042574;28;20033;-70
2021/07/16 01:53:02;;;;;;;16.95;5.28;;;;;;;;;;5024051;28;20049;-70
2021/07/16 01:55:31;;;;;;;15.00;4.93;;;;;;;;;;5031032;28;20448;-70
2021/07/16 01:57:58;;;;;;;18.92;5.65;;;;;;;;;;5026109;28;20453;-71
2021/07/16 02:00:29;;;;;;;23.38;5.30;;;;;;;;;;5034839;28;20033;-71
2021/07/16 02:02:56;;;;;;;21.23;5.97;;;;;;;;;;5030921;28;20037;-71
2021/07/16 02:05:23;;;;;;;18.58;4.60;;;;;;;;;;5036846;28;20060;-71
2021/07/16 02:07:50;;;;;;;22.73;6.03;;;;;;;;;;5027012;28;20034;-71
2021/07/16 02:10:17;;;;;;;16.20;5.25;;;;;;;;;;5036725;28;20041;-71
2021/07/16 02:12:43;;;;;;;17.75;4.93;;;;;;;;;;5027514;28;20520;-71
2021/07/16 02:15:14;;;;;;;25.30;5.90;;;;;;;;;;5032905;28;20061;-71
2021/07/16 02:17:40;;;;;;;20.73;5.25;;;;;;;;;;5032719;28;20116;-71
2021/07/16 02:20:18;;;;;;;20.63;5.07;;;;;;;;;;5039106;28;20067;-71
2021/07/16 02:22:44;;;;;;;17.77;4.50;;;;;;;;;;5021696;28;20497;-71
2021/07/16 02:25:11;;;;;;;22.33;5.47;;;;;;;;;;5033076;28;20055;-71
2021/07/16 02:27:37;;;;;;;24.33;5.15;;;;;;;;;;5025793;28;20048;-71
2021/07/16 02:30:05;;;;;;;20.88;5.88;;;;;;;;;;5041927;28;20621;-71
2021/07/16 02:32:31;;;;;;;26.58;4.68;;;;;;;;;;5032868;28;20088;-71
2021/07/16 02:34:57;;;;;;;22.92;5.28;;;;;;;;;;5027844;28;20168;-71
2021/07/16 02:37:24;;;;;;;15.77;5.82;;;;;;;;;;5034896;28;20044;-71
2021/07/16 02:39:50;;;;;;;19.52;5.03;;;;;;;;;;5028317;28;20037;-71
2021/07/16 02:42:16;;;;;;;21.83;5.38;;;;;;;;;;5035133;28;20040;-70
2021/07/16 02:44:42;;;;;;;16.80;4.60;;;;;;;;;;5030858;28;20490;-71
2021/07/16 02:47:09;;;;;;;20.63;5.60;;;;;;;;;;5032333;28;20037;-71
2021/07/16 02:49:35;;;;;;;21.70;5.50;;;;;;;;;;5026217;28;20037;-71
2021/07/16 02:52:01;;;;;;;22.50;5.13;;;;;;;;;;5019363;28;20061;-71
2021/07/16 02:54:27;;;;;;;19.48;4.88;;;;;;;;;;5028492;28;20053;-71
2021/07/16 02:56:53;;;;;;;20.58;5.28;;;;;;;;;;5034635;28;20474;-71
2021/07/16 02:59:19;;;;;;;21.95;4.88;;;;;;;;;;5029770;28;20124;-71
2021/07/16 03:01:55;;;;;;;27.85;5.40;;;;;;;;;;5032861;28;20397;-71
2021/07/16 03:04:23;;;;;;;17.85;4.72;;;;;;;;;;5030838;28;20026;-71
2021/07/16 03:06:49;;;;;;;21.58;5.18;;;;;;;;;;5037528;28;21132;-71
2021/07/16 03:09:16;;;;;;;16.08;4.47;;;;;;;;;;5013281;28;20080;-71
2021/07/16 03:11:42;;;;;;;17.95;4.75;;;;;;;;;;5041276;28;20482;-71
2021/07/16 03:14:08;;;;;;;16.77;4.85;;;;;;;;;;5031616;28;20122;-71
2021/07/16 03:16:34;;;;;;;21.08;4.75;;;;;;;;;;5033137;28;20123;-71
2021/07/16 03:19:03;;;;;;;20.75;4.85;;;;;;;;;;5029818;28;20068;-71
2021/07/16 03:21:31;;;;;;;19.55;5.00;;;;;;;;;;5038725;28;20653;-71
2021/07/16 03:23:57;;;;;;;17.88;4.70;;;;;;;;;;5020095;28;20520;-71
2021/07/16 03:26:23;;;;;;;23.67;5.55;;;;;;;;;;5038281;28;20660;-71
2021/07/16 03:28:49;;;;;;;18.92;5.05;;;;;;;;;;5035741;28;20037;-71
2021/07/16 03:31:15;;;;;;;22.50;4.80;;;;;;;;;;5034471;28;20121;-71
2021/07/16 03:33:41;;;;;;;17.75;5.15;;;;;;;;;;5034916;28;20497;-71
2021/07/16 03:36:08;;;;;;;20.73;5.10;;;;;;;;;;5027627;28;20203;-71
2021/07/16 03:38:36;;;;;;;22.42;4.30;;;;;;;;;;5032256;28;20498;-71
2021/07/16 03:41:06;;;;;;;15.18;4.20;;;;;;;;;;5032886;28;20031;-71
2021/07/16 03:43:32;;;;;;;24.23;4.90;;;;;;;;;;5043943;28;20048;-71
2021/07/16 03:45:59;;;;;;;25.13;5.07;;;;;;;;;;5027702;28;20043;-71
2021/07/16 03:48:25;;;;;;;18.35;4.85;;;;;;;;;;5037713;28;20038;-71
2021/07/16 03:50:51;;;;;;;22.77;4.80;;;;;;;;;;5032610;28;20042;-71
2021/07/16 03:53:17;;;;;;;22.30;4.75;;;;;;;;;;5034919;28;20095;-71
2021/07/16 03:55:43;;;;;;;16.70;4.50;;;;;;;;;;5036652;28;20048;-71
2021/07/16 03:58:09;;;;;;;27.05;5.10;;;;;;;;;;5032973;28;20030;-71
2021/07/16 04:00:36;;;;;;;20.15;4.28;;;;;;;;;;5040887;28;20114;-71
2021/07/16 04:03:03;;;;;;;18.38;4.28;;;;;;;;;;5028349;28;20048;-71
2021/07/16 04:05:31;;;;;;;15.68;4.53;;;;;;;;;;5034289;28;20457;-71
2021/07/16 04:08:07;;;;;;;20.63;4.97;;;;;;;;;;5017602;28;20040;-71
2021/07/16 04:10:34;;;;;;;21.17;4.60;;;;;;;;;;5022708;28;20057;-71
2021/07/16 04:13:02;;;;;;;18.40;4.40;;;;;;;;;;5031313;28;20065;-71
2021/07/16 04:15:28;;;;;;;25.70;6.00;;;;;;;;;;5036093;28;20118;-71
2021/07/16 04:17:56;;;;;;;23.83;5.18;;;;;;;;;;5033396;28;20394;-71
2021/07/16 04:20:22;;;;;;;20.35;4.63;;;;;;;;;;5034172;28;20037;-71
2021/07/16 04:22:50;;;;;;;17.70;4.45;;;;;;;;;;5040187;28;20076;-71
2021/07/16 04:25:18;;;;;;;23.17;5.13;;;;;;;;;;5033748;28;20064;-71
2021/07/16 04:27:45;;;;;;;26.13;5.18;;;;;;;;;;5023779;28;20124;-71
2021/07/16 04:30:11;;;;;;;31.30;5.18;;;;;;;;;;5035442;28;20453;-71
2021/07/16 04:32:38;;;;;;;21.67;4.80;;;;;;;;;;5027285;28;20079;-71
2021/07/16 04:35:05;;;;;;;21.15;4.45;;;;;;;;;;5038926;28;20064;-71
2021/07/16 04:37:31;;;;;;;18.90;3.92;;;;;;;;;;5027963;28;20033;-71
2021/07/16 04:39:58;;;;;;;29.33;5.15;;;;;;;;;;5016417;28;20208;-71
2021/07/16 04:42:24;;;;;;;16.30;4.05;;;;;;;;;;5037827;28;20060;-71
2021/07/16 04:44:50;;;;;;;23.25;4.68;;;;;;;;;;5028072;28;20541;-71
2021/07/16 04:47:17;;;;;;;24.50;4.60;;;;;;;;;;5037699;28;20048;-71
2021/07/16 04:49:43;;;;;;;23.00;4.88;;;;;;;;;;5011602;28;20073;-71
2021/07/16 04:52:09;;;;;;;22.33;5.10;;;;;;;;;;5038176;28;20051;-71
2021/07/16 04:54:36;;;;;;;22.38;4.70;;;;;;;;;;5027504;28;20037;-71
2021/07/16 04:57:02;;;;;;;23.17;4.80;;;;;;;;;;5037199;28;20166;-71
2021/07/16 04:59:30;;;;;;;24.33;5.32;;;;;;;;;;5031497;28;20037;-71
2021/07/16 05:01:58;;;;;;;19.77;4.72;;;;;;;;;;5038688;28;20072;-71
2021/07/16 05:04:24;;;;;;;17.02;4.35;;;;;;;;;;5026173;28;20098;-71
2021/07/16 05:06:50;;;;;;;19.70;4.30;;;;;;;;;;5032597;28;20033;-71
2021/07/16 05:09:16;;;;;;;24.13;4.60;;;;;;;;;;5029218;28;20041;-71
2021/07/16 05:11:43;;;;;;;24.40;5.25;;;;;;;;;;5015191;28;20060;-71
2021/07/16 05:14:10;;;;;;;27.13;5.22;;;;;;;;;;5028192;28;20029;-71
2021/07/16 05:16:36;;;;;;;21.90;4.22;;;;;;;;;;5019103;28;20045;-71
2021/07/16 05:19:02;;;;;;;24.15;4.88;;;;;;;;;;5029902;28;20029;-71
2021/07/16 05:21:29;;;;;;;23.73;4.65;;;;;;;;;;5034116;28;20072;-71
2021/07/16 05:23:55;;;;;;;29.83;4.93;;;;;;;;;;5033891;28;20061;-71
2021/07/16 05:26:21;;;;;;;27.95;5.70;;;;;;;;;;5012604;28;20421;-71
2021/07/16 05:28:49;;;;;;;29.08;5.40;;;;;;;;;;5019700;28;20042;-71
2021/07/16 05:31:16;;;;;;;23.20;4.38;;;;;;;;;;5027892;28;21255;-71
2021/07/16 05:33:42;;;;;;;24.40;5.00;;;;;;;;;;5022369;28;20060;-71
2021/07/16 05:36:08;;;;;;;23.88;5.00;;;;;;;;;;5027153;28;20033;-71
2021/07/16 05:38:36;;;;;;;32.40;6.00;;;;;;;;;;5033172;28;20520;-71
2021/07/16 05:41:04;;;;;;;25.17;5.38;;;;;;;;;;5027230;28;20104;-71
2021/07/16 05:43:30;;;;;;;29.38;5.10;;;;;;;;;;5030888;28;20381;-71
2021/07/16 05:45:56;;;;;;;28.45;5.72;;;;;;;;;;5037261;28;20060;-71
2021/07/16 05:48:23;;;;;;;20.77;5.03;;;;;;;;;;5037344;28;20033;-71
2021/07/16 05:50:49;;;;;;;23.80;5.45;;;;;;;;;;5025515;28;20056;-72
2021/07/16 05:53:16;;;;;;;22.48;5.20;;;;;;;;;;5035652;28;20037;-72
2021/07/16 05:55:42;;;;;;;30.65;4.82;;;;;;;;;;5028052;28;20389;-72
2021/07/16 05:58:09;;;;;;;24.95;4.57;;;;;;;;;;5034994;28;20037;-72
2021/07/16 06:00:35;;;;;;;25.92;4.90;;;;;;;;;;5024981;28;20470;-72
2021/07/16 06:03:02;;;;;;;26.73;5.82;;;;;;;;;;5029502;28;20365;-71
2021/07/16 06:05:29;;;;;;;31.10;5.88;;;;;;;;;;5034655;28;20051;-72
2021/07/16 06:07:55;;;;;;;26.35;5.40;;;;;;;;;;5035482;28;20097;-72
2021/07/16 06:10:21;;;;;;;25.52;4.93;;;;;;;;;;5038692;28;20398;-72
2021/07/16 06:12:47;;;;;;;24.63;5.20;;;;;;;;;;5032186;28;20057;-72
2021/07/16 06:15:13;;;;;;;23.98;5.55;;;;;;;;;;5035658;28;20048;-72
2021/07/16 06:17:40;;;;;;;26.02;5.03;;;;;;;;;;5027772;28;20037;-72
2021/07/16 06:20:07;;;;;;;25.33;4.30;;;;;;;;;;5033102;28;20044;-71
2021/07/16 06:22:33;;;;;;;22.98;4.75;;;;;;;;;;5026015;28;20392;-71
2021/07/16 06:24:59;;;;;;;26.98;5.50;;;;;;;;;;5020826;28;20125;-71
2021/07/16 06:27:25;;;;;;;24.23;4.70;;;;;;;;;;5025760;28;20033;-71
2021/07/16 06:29:52;;;;;;;23.67;4.97;;;;;;;;;;5034700;28;20036;-71
2021/07/16 06:32:18;;;;;;;26.27;6.15;;;;;;;;;;5025728;28;20036;-71
2021/07/16 06:34:44;;;;;;;24.70;5.20;;;;;;;;;;5031786;28;20033;-71
2021/07/16 06:37:10;;;;;;;27.05;4.32;;;;;;;;;;5027225;28;20485;-71
2021/07/16 06:39:37;;;;;;;26.27;5.72;;;;;;;;;;5032976;28;20526;-71
2021/07/16 06:42:06;;;;;;;26.58;5.57;;;;;;;;;;5030657;28;20033;-71
2021/07/16 06:44:32;;;;;;;31.52;6.22;;;;;;;;;;5028147;28;20045;-72
2021/07/16 06:46:58;;;;;;;27.75;5.78;;;;;;;;;;5031816;28;20752;-72
2021/07/16 06:49:27;;;;;;;23.80;4.65;;;;;;;;;;5025203;28;20041;-72
2021/07/16 06:51:54;;;;;;;26.35;5.40;;;;;;;;;;5032917;28;20103;-72
2021/07/16 06:54:20;;;;;;;25.58;5.55;;;;;;;;;;5028089;28;20456;-72
2021/07/16 06:56:47;;;;;;;27.77;5.07;;;;;;;;;;5035009;28;20068;-72
2021/07/16 06:59:13;;;;;;;25.88;5.93;;;;;;;;;;5030916;28;20040;-72
2021/07/16 07:01:39;;;;;;;24.58;5.88;;;;;;;;;;5035081;28;20505;-72
2021/07/16 07:04:06;;;;;;;20.92;5.15;;;;;;;;;;5014749;28;20114;-72
2021/07/16 07:06:32;;;;;;;21.65;4.80;;;;;;;;;;5038689;28;20132;-72
2021/07/16 07:08:58;;;;;;;25.08;5.38;;;;;;;;;;5031303;28;20048;-72
2021/07/16 07:11:24;;;;;;;29.65;4.80;;;;;;;;;;5040910;28;20374;-72
2021/07/16 07:13:51;;;;;;;27.42;7.32;;;;;;;;;;5031090;28;20517;-72
2021/07/16 07:16:17;;;;;;;29.25;5.90;;;;;;;;;;5035905;28;20036;-72
2021/07/16 07:18:44;;;;;;;24.58;4.28;;;;;;;;;;5033064;28;20037;-72
2021/07/16 07:21:10;;;;;;;27.02;5.65;;;;;;;;;;5034001;28;20497;-72
2021/07/16 07:23:37;;;;;;;24.27;4.85;;;;;;;;;;5035997;28;20117;-72
2021/07/16 07:26:03;;;;;;;23.83;5.10;;;;;;;;;;5031129;28;20087;-72
2021/07/16 07:28:29;;;;;;;30.98;5.55;;;;;;;;;;5033967;28;20029;-72
2021/07/16 07:30:55;;;;;;;25.42;4.95;;;;;;;;;;5033855;28;20063;-72
2021/07/16 07:33:21;;;;;;;28.67;5.30;;;;;;;;;;5034551;28;20137;-72
2021/07/16 07:35:48;;;;;;;26.13;5.47;;;;;;;;;;5029599;28;20076;-72
2021/07/16 07:38:14;;;;;;;28.27;4.90;;;;;;;;;;5032060;28;20492;-72
2021/07/16 07:40:41;;;;;;;21.27;5.30;;;;;;;;;;5029949;28;20492;-72
2021/07/16 07:43:07;;;;;;;28.42;5.07;;;;;;;;;;5036388;28;20161;-72
2021/07/16 07:45:34;;;;;;;32.45;6.10;;;;;;;;;;5030070;28;20473;-72
2021/07/16 07:48:00;;;;;;;24.58;4.95;;;;;;;;;;5033829;28;20056;-72
2021/07/16 07:50:27;;;;;;;22.70;5.18;;;;;;;;;;5032026;28;20052;-72
2021/07/16 07:52:54;;;;;;;29.08;6.28;;;;;;;;;;5033883;28;20076;-72
2021/07/16 07:55:21;;;;;;;32.20;5.45;;;;;;;;;;5033247;28;20097;-72
2021/07/16 07:57:51;;;;;;;31.70;5.90;;;;;;;;;;5034900;28;20044;-72
2021/07/16 08:00:21;;;;;;;29.80;5.35;;;;;;;;;;5032072;28;20132;-72
2021/07/16 08:02:47;;;;;;;30.23;5.05;;;;;;;;;;5040260;28;20057;-72
2021/07/16 08:05:14;;;;;;;31.23;5.63;;;;;;;;;;5039115;28;20073;-72
2021/07/16 08:07:40;;;;;;;25.95;4.85;;;;;;;;;;5029244;28;20454;-72
2021/07/16 08:10:08;;;;;;;25.13;5.25;;;;;;;;;;5042607;28;20029;-72
2021/07/16 08:12:34;;;;;;;31.58;5.93;;;;;;;;;;5033811;28;20053;-72
2021/07/16 08:15:00;;;;;;;32.13;5.82;;;;;;;;;;5039224;28;20060;-72
2021/07/16 08:17:26;;;;;;;26.63;5.68;;;;;;;;;;5033238;28;20037;-72
2021/07/16 08:19:53;;;;;;;29.98;5.47;;;;;;;;;;5019709;28;20052;-72
2021/07/16 08:22:19;;;;;;;21.85;4.72;;;;;;;;;;5032729;28;20041;-73
2021/07/16 08:24:45;;;;;;;29.23;5.25;;;;;;;;;;5035619;28;20064;-73
2021/07/16 08:27:11;;;;;;;28.92;5.50;;;;;;;;;;5012710;28;20386;-73
2021/07/16 08:29:37;;;;;;;23.55;5.03;;;;;;;;;;5017952;28;20473;-73
2021/07/16 08:32:03;;;;;;;26.55;5.57;;;;;;;;;;5032904;28;20037;-73
2021/07/16 08:34:30;;;;;;;31.20;5.90;;;;;;;;;;5022056;28;20422;-73
2021/07/16 08:36:57;;;;;;;26.75;5.20;;;;;;;;;;5032852;28;20150;-73
2021/07/16 08:39:23;;;;;;;28.63;5.90;;;;;;;;;;5038937;28;20033;-73
2021/07/16 08:41:51;;;;;;;25.10;4.97;;;;;;;;;;5029820;28;20041;-73
2021/07/16 08:44:18;;;;;;;27.90;5.35;;;;;;;;;;5039794;28;20501;-73
2021/07/16 08:46:45;;;;;;;23.02;5.18;;;;;;;;;;5034744;28;20069;-73
2021/07/16 08:49:12;;;;;;;23.45;5.10;;;;;;;;;;5031302;28;20040;-73
2021/07/16 08:51:38;;;;;;;26.92;5.93;;;;;;;;;;5034728;28;20382;-74
2021/07/16 08:54:05;;;;;;;23.13;4.90;;;;;;;;;;5029576;28;20412;-73
2021/07/16 08:56:35;;;;;;;22.90;4.95;;;;;;;;;;5033527;28;20029;-73
2021/07/16 08:59:05;;;;;;;31.55;5.70;;;;;;;;;;5006550;28;20064;-73
2021/07/16 09:01:31;;;;;;;27.20;5.25;;;;;;;;;;5034983;28;20037;-73
2021/07/16 09:04:05;;;;;;;28.02;5.47;;;;;;;;;;5037215;28;20043;-73
2021/07/16 09:06:48;;;;;;;29.75;5.57;;;;;;;;;;5021103;28;20504;-73
2021/07/16 09:09:15;;;;;;;20.92;4.72;;;;;;;;;;5033721;28;20090;-74
2021/07/16 09:11:42;;;;;;;25.65;5.75;;;;;;;;;;5025923;28;20053;-74
2021/07/16 09:14:08;;;;;;;29.63;5.55;;;;;;;;;;5036286;28;20075;-74
2021/07/16 09:16:35;;;;;;;26.77;5.30;;;;;;;;;;5034017;28;20043;-74
2021/07/16 09:19:01;;;;;;;22.38;4.90;;;;;;;;;;5028914;28;20049;-74
2021/07/16 09:21:27;;;;;;;25.60;5.03;;;;;;;;;;5035636;28;20041;-74
2021/07/16 09:23:53;;;;;;;26.20;5.47;;;;;;;;;;5028908;28;20048;-74
2021/07/16 09:26:28;;;;;;;27.25;5.57;;;;;;;;;;5033543;28;20069;-74
2021/07/16 09:28:56;;;;;;;29.25;5.90;;;;;;;;;;5027722;28;20071;-74
2021/07/16 09:31:23;;;;;;;27.33;6.75;;;;;;;;;;5035214;28;20108;-73
2021/07/16 09:33:53;;;;;;;24.65;5.45;;;;;;;;;;5032100;28;20041;-69
2021/07/16 09:36:30;;;;;;;23.25;5.50;;;;;;;;;;5034037;28;20422;-69
2021/07/16 09:39:03;;;;;;;23.88;5.57;;;;;;;;;;5034260;28;20355;-70
2021/07/16 09:41:30;;;;;;;29.75;5.68;;;;;;;;;;5032510;28;20037;-69
2021/07/16 09:44:00;;;;;;;28.30;5.82;;;;;;;;;;5035837;28;20348;-69
2021/07/16 09:46:27;;;;;;;28.52;6.30;;;;;;;;;;5033277;28;20045;-69
2021/07/16 09:48:53;;;;;;;25.50;6.05;;;;;;;;;;5040368;28;20042;-69
2021/07/16 09:51:25;;;;;;;26.23;5.80;;;;;;;;;;5031221;28;20121;-69
2021/07/16 09:54:00;;;;;;;26.95;5.40;;;;;;;;;;5038843;28;20115;-69
2021/07/16 09:56:27;;;;;;;26.48;5.35;;;;;;;;;;5029448;28;20068;-69
2021/07/16 09:59:01;;;;;;;23.10;4.70;;;;;;;;;;5037015;28;20516;-69
2021/07/16 10:01:28;;;;;;;28.42;5.97;;;;;;;;;;5028081;28;20075;-70
2021/07/16 10:03:54;;;;;;;24.88;5.50;;;;;;;;;;5032743;28;20038;-70
2021/07/16 10:06:21;;;;;;;28.83;6.80;;;;;;;;;;5034581;28;20494;-70
2021/07/16 10:08:48;;;;;;;31.42;5.45;;;;;;;;;;5032104;28;20042;-70
2021/07/16 10:11:19;;;;;;;22.60;5.57;;;;;;;;;;5028264;28;20133;-70
2021/07/16 10:13:46;;;;;;;25.35;5.25;;;;;;;;;;5033227;28;20450;-70
2021/07/16 10:16:13;;;;;;;26.33;5.38;;;;;;;;;;5032264;28;20034;-70
2021/07/16 10:18:40;;;;;;;20.50;5.25;;;;;;;;;;5033027;28;20112;-68
2021/07/16 10:21:07;;;;;;;24.70;5.35;;;;;;;;;;5030507;28;20041;-69
2021/07/16 10:23:33;;;;;;;26.23;5.57;;;;;;;;;;5034067;28;20555;-70
2021/07/16 10:26:01;;;;;;;25.45;5.60;;;;;;;;;;5029468;28;20040;-70
2021/07/16 10:28:45;;;;;;;19.80;5.57;;;;;;;;;;5033281;28;20049;-70
2021/07/16 10:31:31;;;;;;;25.42;5.05;;;;;;;;;;5027151;28;20470;-70
2021/07/16 10:34:03;;;;;;;22.48;6.00;;;;;;;;;;5021433;28;20044;-70
2021/07/16 10:36:38;;;;;;;27.13;6.18;;;;;;;;;;5033314;28;20040;-70
2021/07/16 10:39:05;;;;;;;22.23;5.63;;;;;;;;;;5037782;28;20084;-70
2021/07/16 10:41:35;;;;;;;20.42;4.97;;;;;;;;;;5033082;28;20029;-69
2021/07/16 10:44:02;;;;;;;23.23;4.93;;;;;;;;;;5040040;28;20127;-69
2021/07/16 10:46:30;;;;;;;22.05;4.97;;;;;;;;;;5038615;28;20462;-69
2021/07/16 10:48:56;;;;;;;25.17;5.88;;;;;;;;;;5031431;28;20065;-70
2021/07/16 10:51:29;;;;;;;22.92;5.78;;;;;;;;;;5040459;28;20128;-70
2021/07/16 10:53:56;;;;;;;25.33;5.53;;;;;;;;;;5032641;28;20040;-70
2021/07/16 10:56:37;;;;;;;25.08;5.75;;;;;;;;;;5036478;28;20142;-69
2021/07/16 10:59:03;;;;;;;25.70;5.45;;;;;;;;;;5033247;28;20405;-70
2021/07/16 11:01:31;;;;;;;27.30;6.18;;;;;;;;;;5036954;28;20046;-70
2021/07/16 11:03:57;;;;;;;27.05;5.85;;;;;;;;;;5029981;28;20065;-70
2021/07/16 11:06:43;;;;;;;18.15;4.72;;;;;;;;;;5037112;28;20065;-70
2021/07/16 11:09:09;;;;;;;23.08;5.13;;;;;;;;;;5032889;28;20087;-70
2021/07/16 11:11:38;;;;;;;24.77;5.22;;;;;;;;;;5047712;28;20091;-70
2021/07/16 11:14:05;;;;;;;24.60;5.93;;;;;;;;;;5030716;28;20052;-70
2021/07/16 11:16:32;;;;;;;18.20;4.82;;;;;;;;;;5038048;28;20029;-70
2021/07/16 11:19:02;;;;;;;23.58;5.50;;;;;;;;;;5012691;28;20441;-70
2021/07/16 11:21:40;;;;;;;24.67;5.20;;;;;;;;;;5033262;28;20053;-70
2021/07/16 11:24:19;;;;;;;22.60;5.40;;;;;;;;;;5029161;28;20042;-70
2021/07/16 11:26:48;;;;;;;20.13;5.32;;;;;;;;;;5040439;28;20563;-71
2021/07/16 11:29:14;;;;;;;23.60;5.15;;;;;;;;;;5035997;28;20037;-69
2021/07/16 11:31:41;;;;;;;21.88;5.22;;;;;;;;;;5045461;28;20042;-69
2021/07/16 11:34:10;;;;;;;19.33;4.40;;;;;;;;;;5035073;28;20034;-70
2021/07/16 11:36:36;;;;;;;23.33;5.35;;;;;;;;;;5038199;28;20036;-70
2021/07/16 11:39:03;;;;;;;24.85;5.97;;;;;;;;;;5029907;28;20037;-70
2021/07/16 11:41:30;;;;;;;28.25;5.57;;;;;;;;;;5027498;28;20054;-70
2021/07/16 11:43:59;;;;;;;28.95;5.93;;;;;;;;;;5031493;28;20355;-70
2021/07/16 11:46:29;;;;;;;23.33;5.63;;;;;;;;;;5036605;28;20045;-70
2021/07/16 11:48:55;;;;;;;21.67;6.30;;;;;;;;;;5043939;28;20144;-70
2021/07/16 11:51:28;;;;;;;25.95;5.60;;;;;;;;;;5030228;28;20048;-70
2021/07/16 11:53:54;;;;;;;27.95;5.63;;;;;;;;;;5036187;28;20034;-70
2021/07/16 11:56:23;;;;;;;22.95;5.30;;;;;;;;;;5031027;28;20167;-70
2021/07/16 11:58:50;;;;;;;19.60;5.82;;;;;;;;;;5043799;28;20033;-70
2021/07/16 12:01:19;;;;;;;24.45;6.35;;;;;;;;;;5035519;28;20060;-70
2021/07/16 12:03:45;;;;;;;21.00;6.25;;;;;;;;;;5034964;28;20057;-70
2021/07/16 12:06:12;;;;;;;26.02;5.70;;;;;;;;;;5029352;28;20541;-70
2021/07/16 12:08:38;;;;;;;26.02;6.32;;;;;;;;;;5030981;28;20041;-70
2021/07/16 12:11:14;;;;;;;22.58;5.55;;;;;;;;;;5034263;28;20121;-70
2021/07/16 12:13:41;;;;;;;23.20;6.03;;;;;;;;;;5037663;28;20037;-70
2021/07/16 12:16:08;;;;;;;25.65;5.95;;;;;;;;;;5034005;28;20631;-70
2021/07/16 12:18:37;;;;;;;24.10;5.90;;;;;;;;;;5034269;28;20117;-69
2021/07/16 12:21:08;;;;;;;24.40;6.38;;;;;;;;;;5029682;28;20041;-70
2021/07/16 12:23:34;;;;;;;24.60;6.15;;;;;;;;;;5036465;28;20033;-69
2021/07/16 12:26:18;;;;;;;21.63;5.35;;;;;;;;;;5028051;28;20232;-69
2021/07/16 12:28:44;;;;;;;25.85;6.15;;;;;;;;;;5034094;28;20120;-69
2021/07/16 12:31:11;;;;;;;26.85;5.97;;;;;;;;;;5034637;28;20037;-69
2021/07/16 12:33:37;;;;;;;26.77;6.57;;;;;;;;;;5035129;28;20478;-69
2021/07/16 12:36:04;;;;;;;28.33;6.10;;;;;;;;;;5027046;28;20046;-70
2021/07/16 12:38:34;;;;;;;26.33;6.13;;;;;;;;;;5042825;28;20040;-70
2021/07/16 12:41:10;;;;;;;25.35;6.18;;;;;;;;;;5038490;28;20115;-70
2021/07/16 12:43:43;;;;;;;22.92;6.47;;;;;;;;;;5033257;28;20037;-70
2021/07/16 12:46:10;;;;;;;23.83;6.25;;;;;;;;;;5038005;28;20133;-67
2021/07/16 12:48:37;;;;;;;22.15;6.25;;;;;;;;;;5030140;28;20397;-67
2021/07/16 12:51:03;;;;;;;18.90;6.35;;;;;;;;;;5019024;28;20062;-67
2021/07/16 12:53:40;;;;;;;21.10;5.65;;;;;;;;;;5029059;28;20045;-68
2021/07/16 12:56:16;;;;;;;21.85;5.85;;;;;;;;;;5035931;28;20529;-68
2021/07/16 12:58:42;;;;;;;23.95;6.28;;;;;;;;;;5009320;28;20054;-68
2021/07/16 13:01:08;;;;;;;21.88;6.07;;;;;;;;;;5036843;28;20048;-67
2021/07/16 13:03:38;;;;;;;23.17;5.80;;;;;;;;;;5031882;28;20037;-67
2021/07/16 13:06:25;;;;;;;21.08;5.65;;;;;;;;;;5036359;28;20041;-67
2021/07/16 13:09:10;;;;;;;25.17;6.15;;;;;;;;;;5026488;28;20060;-67
2021/07/16 13:11:37;;;;;;;25.52;5.70;;;;;;;;;;5037721;28;20184;-67
2021/07/16 13:14:03;;;;;;;20.42;6.05;;;;;;;;;;5030868;28;20044;-67
2021/07/16 13:16:30;;;;;;;22.60;6.30;;;;;;;;;;5034135;28;20045;-67
2021/07/16 13:18:59;;;;;;;25.80;6.85;;;;;;;;;;5032761;28;20041;-67
2021/07/16 13:21:26;;;;;;;22.98;5.95;;;;;;;;;;5035477;28;20041;-68
2021/07/16 13:23:52;;;;;;;20.55;6.25;;;;;;;;;;5028474;28;20037;-67
2021/07/16 13:26:19;;;;;;;25.23;6.60;;;;;;;;;;5016469;28;20187;-68
2021/07/16 13:28:46;;;;;;;20.58;5.57;;;;;;;;;;5033260;28;20038;-67
2021/07/16 13:31:12;;;;;;;21.45;5.85;;;;;;;;;;5037565;28;20108;-67
2021/07/16 13:33:39;;;;;;;24.00;6.00;;;;;;;;;;5029995;28;20060;-67
2021/07/16 13:36:06;;;;;;;20.20;5.63;;;;;;;;;;5039006;28;20101;-67
2021/07/16 13:38:33;;;;;;;21.60;5.70;;;;;;;;;;5032109;28;20179;-67
2021/07/16 13:41:06;;;;;;;24.75;6.10;;;;;;;;;;5038488;28;20038;-67
2021/07/16 13:43:33;;;;;;;23.73;6.15;;;;;;;;;;5031735;28;20061;-68
2021/07/16 13:45:59;;;;;;;23.08;6.20;;;;;;;;;;5035030;28;20045;-67
2021/07/16 13:48:25;;;;;;;22.73;6.90;;;;;;;;;;5032361;28;20120;-67
2021/07/16 13:50:51;;;;;;;23.40;6.05;;;;;;;;;;5029153;28;20123;-68
2021/07/16 13:53:18;;;;;;;23.13;6.85;;;;;;;;;;5035646;28;20041;-67
2021/07/16 13:55:44;;;;;;;22.98;6.25;;;;;;;;;;5028608;28;20079;-67
2021/07/16 13:58:11;;;;;;;20.77;5.85;;;;;;;;;;5036737;28;20043;-67
2021/07/16 14:00:37;;;;;;;27.98;8.30;;;;;;;;;;5031785;28;20131;-67
2021/07/16 14:03:04;;;;;;;22.85;6.40;;;;;;;;;;5033058;28;20569;-67
2021/07/16 14:05:30;;;;;;;25.52;6.20;;;;;;;;;;5028658;28;20484;-67
2021/07/16 14:07:56;;;;;;;27.05;6.88;;;;;;;;;;5034383;28;20448;-67
2021/07/16 14:10:23;;;;;;;22.65;6.38;;;;;;;;;;5027870;28;20065;-68
2021/07/16 14:12:49;;;;;;;22.75;6.63;;;;;;;;;;5032742;28;20577;-68
2021/07/16 14:15:16;;;;;;;26.10;6.68;;;;;;;;;;5029116;28;20051;-68
2021/07/16 14:17:43;;;;;;;23.00;6.38;;;;;;;;;;5035424;28;20033;-68
2021/07/16 14:20:10;;;;;;;24.40;6.28;;;;;;;;;;5028506;28;20048;-68
2021/07/16 14:22:38;;;;;;;20.75;5.90;;;;;;;;;;5032079;28;20073;-68
2021/07/16 14:25:05;;;;;;;22.45;7.13;;;;;;;;;;5032213;28;20043;-68
2021/07/16 14:27:31;;;;;;;21.77;6.28;;;;;;;;;;5034502;28;20049;-68
2021/07/16 14:29:57;;;;;;;18.38;6.28;;;;;;;;;;5041678;28;20045;-67
2021/07/16 14:32:23;;;;;;;25.98;6.30;;;;;;;;;;5034020;28;20041;-68